sensor_id;sensor_type;location;lat;lon;timestamp;temperature;humidity
18712;DHT22;9485;49.386;8.674;2023-11-22T00:03:27;12.40;90.20
18712;DHT22;9485;49.386;8.674;2023-11-22T00:08:48;12.30;90.10
18712;DHT22;9485;49.386;8.674;2023-11-22T00:14:10;12.20;90.00
18712;DHT22;9485;49.386;8.674;2023-11-22T00:19:31;12.10;90.00
18712;DHT22;9485;49.386;8.674;2023-11-22T00:24:51;12.00;90.00
18712;DHT22;9485;49.386;8.674;2023-11-22T00:30:14;11.80;90.00
18712;DHT22;9485;49.386;8.674;2023-11-22T00:35:35;11.80;90.10
18712;DHT22;9485;49.386;8.674;2023-11-22T00:40:56;11.70;90.10
18712;DHT22;9485;49.386;8.674;2023-11-22T00:46:18;11.60;90.00
18712;DHT22;9485;49.386;8.674;2023-11-22T00:51:39;11.50;89.90
18712;DHT22;9485;49.386;8.674;2023-11-22T00:57:00;11.30;89.80
18712;DHT22;9485;49.386;8.674;2023-11-22T01:02:22;11.20;90.00
18712;DHT22;9485;49.386;8.674;2023-11-22T01:07:42;11.10;89.90
18712;DHT22;9485;49.386;8.674;2023-11-22T01:13:03;11.00;89.90
18712;DHT22;9485;49.386;8.674;2023-11-22T01:18:25;10.90;89.80
18712;DHT22;9485;49.386;8.674;2023-11-22T01:23:46;10.70;90.00
18712;DHT22;9485;49.386;8.674;2023-11-22T01:29:07;10.70;90.10
18712;DHT22;9485;49.386;8.674;2023-11-22T01:34:29;10.60;90.00
18712;DHT22;9485;49.386;8.674;2023-11-22T01:39:50;10.50;89.80
18712;DHT22;9485;49.386;8.674;2023-11-22T01:45:11;12.30;90.30
18712;DHT22;9485;49.386;8.674;2023-11-22T01:50:34;10.30;89.30
18712;DHT22;9485;49.386;8.674;2023-11-22T01:55:55;10.10;89.10
18712;DHT22;9485;49.386;8.674;2023-11-22T02:01:17;10.00;89.20
18712;DHT22;9485;49.386;8.674;2023-11-22T02:06:40;9.90;89.20
18712;DHT22;9485;49.386;8.674;2023-11-22T02:12:01;9.80;89.10
18712;DHT22;9485;49.386;8.674;2023-11-22T02:17:21;9.70;89.00
18712;DHT22;9485;49.386;8.674;2023-11-22T02:22:45;9.60;88.90
18712;DHT22;9485;49.386;8.674;2023-11-22T02:28:09;9.50;88.70
18712;DHT22;9485;49.386;8.674;2023-11-22T02:33:29;9.30;88.90
18712;DHT22;9485;49.386;8.674;2023-11-22T02:38:51;9.20;89.00
18712;DHT22;9485;49.386;8.674;2023-11-22T02:44:15;9.20;89.90
18712;DHT22;9485;49.386;8.674;2023-11-22T02:49:36;9.10;89.30
18712;DHT22;9485;49.386;8.674;2023-11-22T02:54:57;9.00;89.50
18712;DHT22;9485;49.386;8.674;2023-11-22T03:00:19;9.00;89.40
18712;DHT22;9485;49.386;8.674;2023-11-22T03:05:40;8.90;89.30
18712;DHT22;9485;49.386;8.674;2023-11-22T03:11:01;8.80;89.00
18712;DHT22;9485;49.386;8.674;2023-11-22T03:16:23;8.70;89.00
18712;DHT22;9485;49.386;8.674;2023-11-22T03:21:44;8.60;88.70
18712;DHT22;9485;49.386;8.674;2023-11-22T03:27:05;8.60;88.70
18712;DHT22;9485;49.386;8.674;2023-11-22T03:32:27;8.40;88.40
18712;DHT22;9485;49.386;8.674;2023-11-22T03:37:48;8.30;88.80
18712;DHT22;9485;49.386;8.674;2023-11-22T03:43:10;8.20;88.00
18712;DHT22;9485;49.386;8.674;2023-11-22T03:48:32;8.10;88.10
18712;DHT22;9485;49.386;8.674;2023-11-22T03:53:53;8.00;88.30
18712;DHT22;9485;49.386;8.674;2023-11-22T03:59:13;7.90;88.40
18712;DHT22;9485;49.386;8.674;2023-11-22T04:04:36;7.80;88.30
18712;DHT22;9485;49.386;8.674;2023-11-22T04:09:58;7.70;88.20
18712;DHT22;9485;49.386;8.674;2023-11-22T04:15:19;7.70;88.40
18712;DHT22;9485;49.386;8.674;2023-11-22T04:20:41;7.60;88.40
18712;DHT22;9485;49.386;8.674;2023-11-22T04:26:03;7.50;88.30
18712;DHT22;9485;49.386;8.674;2023-11-22T04:31:26;7.50;88.40
18712;DHT22;9485;49.386;8.674;2023-11-22T04:36:48;7.40;88.40
18712;DHT22;9485;49.386;8.674;2023-11-22T04:42:09;7.30;87.20
18712;DHT22;9485;49.386;8.674;2023-11-22T04:47:29;7.30;88.20
18712;DHT22;9485;49.386;8.674;2023-11-22T04:52:51;7.30;88.30
18712;DHT22;9485;49.386;8.674;2023-11-22T04:58:12;7.20;88.50
18712;DHT22;9485;49.386;8.674;2023-11-22T05:03:33;7.20;88.70
18712;DHT22;9485;49.386;8.674;2023-11-22T05:08:55;7.10;88.80
18712;DHT22;9485;49.386;8.674;2023-11-22T05:14:16;7.10;87.30
18712;DHT22;9485;49.386;8.674;2023-11-22T05:19:36;7.10;88.40
18712;DHT22;9485;49.386;8.674;2023-11-22T05:24:58;7.00;88.30
18712;DHT22;9485;49.386;8.674;2023-11-22T05:30:19;7.00;88.20
18712;DHT22;9485;49.386;8.674;2023-11-22T05:35:41;6.90;88.20
18712;DHT22;9485;49.386;8.674;2023-11-22T05:41:04;6.80;88.30
18712;DHT22;9485;49.386;8.674;2023-11-22T05:46:25;6.80;88.00
18712;DHT22;9485;49.386;8.674;2023-11-22T05:51:46;6.70;87.90
18712;DHT22;9485;49.386;8.674;2023-11-22T05:57:08;6.60;88.00
18712;DHT22;9485;49.386;8.674;2023-11-22T06:02:28;6.60;88.30
18712;DHT22;9485;49.386;8.674;2023-11-22T06:07:49;6.60;88.40
18712;DHT22;9485;49.386;8.674;2023-11-22T06:13:12;6.60;88.40
18712;DHT22;9485;49.386;8.674;2023-11-22T06:18:33;6.50;88.30
18712;DHT22;9485;49.386;8.674;2023-11-22T06:23:59;6.50;88.30
18712;DHT22;9485;49.386;8.674;2023-11-22T06:29:23;6.50;88.20
18712;DHT22;9485;49.386;8.674;2023-11-22T06:34:44;6.40;87.80
18712;DHT22;9485;49.386;8.674;2023-11-22T06:40:05;6.30;87.70
18712;DHT22;9485;49.386;8.674;2023-11-22T06:45:29;6.30;87.90
18712;DHT22;9485;49.386;8.674;2023-11-22T06:50:50;6.20;87.80
18712;DHT22;9485;49.386;8.674;2023-11-22T06:56:11;6.20;87.80
18712;DHT22;9485;49.386;8.674;2023-11-22T07:01:33;6.20;88.20
18712;DHT22;9485;49.386;8.674;2023-11-22T07:06:53;6.10;88.00
18712;DHT22;9485;49.386;8.674;2023-11-22T07:12:14;6.10;87.70
18712;DHT22;9485;49.386;8.674;2023-11-22T07:17:41;6.10;87.80
18712;DHT22;9485;49.386;8.674;2023-11-22T07:23:02;6.10;88.10
18712;DHT22;9485;49.386;8.674;2023-11-22T07:28:23;6.10;88.50
18712;DHT22;9485;49.386;8.674;2023-11-22T07:33:46;6.10;88.70
18712;DHT22;9485;49.386;8.674;2023-11-22T07:39:07;6.20;88.80
18712;DHT22;9485;49.386;8.674;2023-11-22T07:44:31;6.20;88.80
18712;DHT22;9485;49.386;8.674;2023-11-22T07:49:53;6.30;88.80
18712;DHT22;9485;49.386;8.674;2023-11-22T07:55:14;6.30;89.10
18712;DHT22;9485;49.386;8.674;2023-11-22T08:00:37;6.40;89.40
18712;DHT22;9485;49.386;8.674;2023-11-22T08:06:02;6.50;89.40
18712;DHT22;9485;49.386;8.674;2023-11-22T08:11:24;6.60;89.50
18712;DHT22;9485;49.386;8.674;2023-11-22T08:16:46;6.70;89.60
18712;DHT22;9485;49.386;8.674;2023-11-22T08:22:08;6.80;89.70
18712;DHT22;9485;49.386;8.674;2023-11-22T08:27:30;6.90;89.60
18712;DHT22;9485;49.386;8.674;2023-11-22T08:32:51;7.00;89.90
18712;DHT22;9485;49.386;8.674;2023-11-22T08:38:14;7.20;89.90
18712;DHT22;9485;49.386;8.674;2023-11-22T08:43:35;7.40;90.10
18712;DHT22;9485;49.386;8.674;2023-11-22T08:48:56;7.60;90.30
18712;DHT22;9485;49.386;8.674;2023-11-22T08:54:18;7.80;90.60
18712;DHT22;9485;49.386;8.674;2023-11-22T08:59:39;8.10;90.70
18712;DHT22;9485;49.386;8.674;2023-11-22T09:05:00;8.50;91.40
18712;DHT22;9485;49.386;8.674;2023-11-22T09:10:24;9.10;92.10
18712;DHT22;9485;49.386;8.674;2023-11-22T09:15:46;9.80;92.60
18712;DHT22;9485;49.386;8.674;2023-11-22T09:21:07;10.60;93.20
18712;DHT22;9485;49.386;8.674;2023-11-22T09:26:30;11.60;93.10
18712;DHT22;9485;49.386;8.674;2023-11-22T09:31:50;12.50;93.40
18712;DHT22;9485;49.386;8.674;2023-11-22T09:37:11;13.50;93.30
18712;DHT22;9485;49.386;8.674;2023-11-22T09:42:33;14.50;93.00
18712;DHT22;9485;49.386;8.674;2023-11-22T09:47:53;15.40;91.40
18712;DHT22;9485;49.386;8.674;2023-11-22T09:53:25;15.80;89.20
18712;DHT22;9485;49.386;8.674;2023-11-22T09:58:54;16.00;85.50
18712;DHT22;9485;49.386;8.674;2023-11-22T10:04:15;15.80;82.20
18712;DHT22;9485;49.386;8.674;2023-11-22T10:09:36;15.40;82.80
18712;DHT22;9485;49.386;8.674;2023-11-22T10:15:11;15.30;85.60
18712;DHT22;9485;49.386;8.674;2023-11-22T10:20:36;15.40;83.30
18712;DHT22;9485;49.386;8.674;2023-11-22T10:25:59;15.30;82.40
18712;DHT22;9485;49.386;8.674;2023-11-22T10:31:26;15.00;82.00
18712;DHT22;9485;49.386;8.674;2023-11-22T10:36:47;14.60;80.70
18712;DHT22;9485;49.386;8.674;2023-11-22T10:42:09;14.20;80.60
18712;DHT22;9485;49.386;8.674;2023-11-22T10:47:32;13.80;80.80
18712;DHT22;9485;49.386;8.674;2023-11-22T10:52:57;13.50;81.10
18712;DHT22;9485;49.386;8.674;2023-11-22T10:58:19;13.30;82.20
18712;DHT22;9485;49.386;8.674;2023-11-22T11:03:46;13.00;82.20
18712;DHT22;9485;49.386;8.674;2023-11-22T11:09:11;12.90;82.50
18712;DHT22;9485;49.386;8.674;2023-11-22T11:14:36;12.70;84.00
18712;DHT22;9485;49.386;8.674;2023-11-22T11:20:00;12.60;84.40
18712;DHT22;9485;49.386;8.674;2023-11-22T11:25:20;12.50;84.00
18712;DHT22;9485;49.386;8.674;2023-11-22T11:30:46;12.40;84.40
18712;DHT22;9485;49.386;8.674;2023-11-22T11:36:08;12.30;83.00
18712;DHT22;9485;49.386;8.674;2023-11-22T11:41:32;12.10;82.90
18712;DHT22;9485;49.386;8.674;2023-11-22T11:46:54;11.80;83.20
18712;DHT22;9485;49.386;8.674;2023-11-22T11:52:18;11.60;83.60
18712;DHT22;9485;49.386;8.674;2023-11-22T11:57:39;11.40;82.00
18712;DHT22;9485;49.386;8.674;2023-11-22T12:03:00;11.20;83.20
18712;DHT22;9485;49.386;8.674;2023-11-22T12:08:23;11.00;83.00
18712;DHT22;9485;49.386;8.674;2023-11-22T12:13:44;10.70;81.60
18712;DHT22;9485;49.386;8.674;2023-11-22T12:19:09;10.70;84.80
18712;DHT22;9485;49.386;8.674;2023-11-22T12:24:31;10.60;83.30
18712;DHT22;9485;49.386;8.674;2023-11-22T12:29:52;10.50;84.30
18712;DHT22;9485;49.386;8.674;2023-11-22T12:35:13;10.40;84.70
18712;DHT22;9485;49.386;8.674;2023-11-22T12:40:36;10.30;84.90
18712;DHT22;9485;49.386;8.674;2023-11-22T12:46:00;10.30;84.70
18712;DHT22;9485;49.386;8.674;2023-11-22T12:51:22;10.30;85.20
18712;DHT22;9485;49.386;8.674;2023-11-22T12:56:47;10.30;85.60
18712;DHT22;9485;49.386;8.674;2023-11-22T13:02:13;10.30;85.50
18712;DHT22;9485;49.386;8.674;2023-11-22T13:07:34;10.30;85.80
18712;DHT22;9485;49.386;8.674;2023-11-22T13:12:57;10.30;85.80
18712;DHT22;9485;49.386;8.674;2023-11-22T13:18:21;10.30;84.80
18712;DHT22;9485;49.386;8.674;2023-11-22T13:23:41;10.20;85.20
18712;DHT22;9485;49.386;8.674;2023-11-22T13:29:04;10.20;84.80
18712;DHT22;9485;49.386;8.674;2023-11-22T13:34:25;10.20;85.20
18712;DHT22;9485;49.386;8.674;2023-11-22T13:39:46;10.10;84.90
18712;DHT22;9485;49.386;8.674;2023-11-22T13:45:12;10.10;85.30
18712;DHT22;9485;49.386;8.674;2023-11-22T13:50:36;10.00;85.00
18712;DHT22;9485;49.386;8.674;2023-11-22T13:55:57;11.30;86.60
18712;DHT22;9485;49.386;8.674;2023-11-22T14:01:21;10.00;86.10
18712;DHT22;9485;49.386;8.674;2023-11-22T14:06:41;10.10;85.80
18712;DHT22;9485;49.386;8.674;2023-11-22T14:12:02;10.10;85.80
18712;DHT22;9485;49.386;8.674;2023-11-22T14:17:24;10.00;85.50
18712;DHT22;9485;49.386;8.674;2023-11-22T14:22:45;10.00;85.60
18712;DHT22;9485;49.386;8.674;2023-11-22T14:28:07;10.00;86.30
18712;DHT22;9485;49.386;8.674;2023-11-22T14:33:30;10.00;86.30
18712;DHT22;9485;49.386;8.674;2023-11-22T14:38:51;9.90;86.10
18712;DHT22;9485;49.386;8.674;2023-11-22T14:44:16;9.90;85.40
18712;DHT22;9485;49.386;8.674;2023-11-22T14:49:38;9.80;86.30
18712;DHT22;9485;49.386;8.674;2023-11-22T14:54:59;9.80;86.00
18712;DHT22;9485;49.386;8.674;2023-11-22T15:00:21;9.70;85.90
18712;DHT22;9485;49.386;8.674;2023-11-22T15:05:43;9.70;86.00
18712;DHT22;9485;49.386;8.674;2023-11-22T15:11:04;9.70;86.10
18712;DHT22;9485;49.386;8.674;2023-11-22T15:16:27;9.70;86.40
18712;DHT22;9485;49.386;8.674;2023-11-22T15:21:50;9.70;86.50
18712;DHT22;9485;49.386;8.674;2023-11-22T15:27:12;9.70;86.50
18712;DHT22;9485;49.386;8.674;2023-11-22T15:32:33;9.70;86.50
18712;DHT22;9485;49.386;8.674;2023-11-22T15:37:55;9.70;86.40
18712;DHT22;9485;49.386;8.674;2023-11-22T15:43:15;9.60;86.20
18712;DHT22;9485;49.386;8.674;2023-11-22T15:48:36;9.60;86.30
18712;DHT22;9485;49.386;8.674;2023-11-22T15:53:58;9.60;86.30
18712;DHT22;9485;49.386;8.674;2023-11-22T15:59:19;9.50;86.10
18712;DHT22;9485;49.386;8.674;2023-11-22T16:04:40;9.40;86.30
18712;DHT22;9485;49.386;8.674;2023-11-22T16:10:03;9.40;86.40
18712;DHT22;9485;49.386;8.674;2023-11-22T16:15:28;9.30;86.40
18712;DHT22;9485;49.386;8.674;2023-11-22T16:20:48;9.30;86.50
18712;DHT22;9485;49.386;8.674;2023-11-22T16:26:10;9.30;86.40
18712;DHT22;9485;49.386;8.674;2023-11-22T16:31:31;9.30;86.50
18712;DHT22;9485;49.386;8.674;2023-11-22T16:36:51;9.20;86.60
18712;DHT22;9485;49.386;8.674;2023-11-22T16:42:13;9.20;86.60
18712;DHT22;9485;49.386;8.674;2023-11-22T16:47:37;9.20;86.50
18712;DHT22;9485;49.386;8.674;2023-11-22T16:52:58;9.20;86.60
18712;DHT22;9485;49.386;8.674;2023-11-22T16:58:21;9.10;86.60
18712;DHT22;9485;49.386;8.674;2023-11-22T17:03:41;9.10;86.40
18712;DHT22;9485;49.386;8.674;2023-11-22T17:09:04;9.10;86.60
18712;DHT22;9485;49.386;8.674;2023-11-22T17:14:26;9.00;86.60
18712;DHT22;9485;49.386;8.674;2023-11-22T17:19:49;9.00;86.30
18712;DHT22;9485;49.386;8.674;2023-11-22T17:25:10;9.00;86.00
18712;DHT22;9485;49.386;8.674;2023-11-22T17:30:32;8.90;86.10
18712;DHT22;9485;49.386;8.674;2023-11-22T17:38:27;8.80;83.40
18712;DHT22;9485;49.386;8.674;2023-11-22T17:43:47;8.80;85.60
18712;DHT22;9485;49.386;8.674;2023-11-22T17:49:08;8.70;85.60
18712;DHT22;9485;49.386;8.674;2023-11-22T17:54:31;8.60;85.70
18712;DHT22;9485;49.386;8.674;2023-11-22T17:59:52;8.60;85.60
18712;DHT22;9485;49.386;8.674;2023-11-22T18:05:13;8.50;85.60
18712;DHT22;9485;49.386;8.674;2023-11-22T18:10:35;8.40;85.50
18712;DHT22;9485;49.386;8.674;2023-11-22T18:15:55;8.30;85.20
18712;DHT22;9485;49.386;8.674;2023-11-22T18:21:16;8.30;85.40
18712;DHT22;9485;49.386;8.674;2023-11-22T18:26:38;8.20;85.30
18712;DHT22;9485;49.386;8.674;2023-11-22T18:31:59;8.10;85.60
18712;DHT22;9485;49.386;8.674;2023-11-22T18:37:21;8.10;86.00
18712;DHT22;9485;49.386;8.674;2023-11-22T18:42:44;8.00;86.20
18712;DHT22;9485;49.386;8.674;2023-11-22T18:48:04;8.00;86.20
18712;DHT22;9485;49.386;8.674;2023-11-22T18:53:25;8.00;86.20
18712;DHT22;9485;49.386;8.674;2023-11-22T18:58:47;7.90;86.10
18712;DHT22;9485;49.386;8.674;2023-11-22T19:04:08;7.90;85.90
18712;DHT22;9485;49.386;8.674;2023-11-22T19:09:28;7.80;85.80
18712;DHT22;9485;49.386;8.674;2023-11-22T19:14:50;7.80;85.80
18712;DHT22;9485;49.386;8.674;2023-11-22T19:20:11;7.70;85.80
18712;DHT22;9485;49.386;8.674;2023-11-22T19:25:32;7.70;86.00
18712;DHT22;9485;49.386;8.674;2023-11-22T19:30:56;7.60;86.00
18712;DHT22;9485;49.386;8.674;2023-11-22T19:36:20;7.60;85.90
18712;DHT22;9485;49.386;8.674;2023-11-22T19:41:41;7.60;85.50
18712;DHT22;9485;49.386;8.674;2023-11-22T19:47:03;7.50;85.50
18712;DHT22;9485;49.386;8.674;2023-11-22T19:52:23;7.40;85.60
18712;DHT22;9485;49.386;8.674;2023-11-22T19:57:45;7.40;85.80
18712;DHT22;9485;49.386;8.674;2023-11-22T20:03:07;7.40;85.90
18712;DHT22;9485;49.386;8.674;2023-11-22T20:08:29;7.30;86.00
18712;DHT22;9485;49.386;8.674;2023-11-22T20:13:49;7.30;86.30
18712;DHT22;9485;49.386;8.674;2023-11-22T20:19:11;7.30;86.40
18712;DHT22;9485;49.386;8.674;2023-11-22T20:24:32;7.40;86.30
18712;DHT22;9485;49.386;8.674;2023-11-22T20:29:52;7.40;86.60
18712;DHT22;9485;49.386;8.674;2023-11-22T20:35:14;7.40;86.50
18712;DHT22;9485;49.386;8.674;2023-11-22T20:40:35;7.40;86.20
18712;DHT22;9485;49.386;8.674;2023-11-22T20:45:56;7.30;86.10
18712;DHT22;9485;49.386;8.674;2023-11-22T20:51:19;7.30;86.00
18712;DHT22;9485;49.386;8.674;2023-11-22T20:56:40;7.20;85.70
18712;DHT22;9485;49.386;8.674;2023-11-22T21:02:01;7.10;85.70
18712;DHT22;9485;49.386;8.674;2023-11-22T21:07:22;7.10;85.70
18712;DHT22;9485;49.386;8.674;2023-11-22T21:12:43;7.00;85.50
18712;DHT22;9485;49.386;8.674;2023-11-22T21:18:04;6.90;86.20
18712;DHT22;9485;49.386;8.674;2023-11-22T21:23:26;6.90;85.40
18712;DHT22;9485;49.386;8.674;2023-11-22T21:28:46;6.80;85.10
18712;DHT22;9485;49.386;8.674;2023-11-22T21:34:07;6.70;85.20
18712;DHT22;9485;49.386;8.674;2023-11-22T21:39:29;6.60;85.40
18712;DHT22;9485;49.386;8.674;2023-11-22T21:44:50;6.50;85.40
18712;DHT22;9485;49.386;8.674;2023-11-22T21:50:11;6.50;85.60
18712;DHT22;9485;49.386;8.674;2023-11-22T21:55:33;6.40;85.80
18712;DHT22;9485;49.386;8.674;2023-11-22T22:00:54;6.40;86.10
18712;DHT22;9485;49.386;8.674;2023-11-22T22:06:18;6.40;86.20
18712;DHT22;9485;49.386;8.674;2023-11-22T22:11:41;6.40;86.30
18712;DHT22;9485;49.386;8.674;2023-11-22T22:17:02;6.40;86.40
18712;DHT22;9485;49.386;8.674;2023-11-22T22:22:23;6.40;86.60
18712;DHT22;9485;49.386;8.674;2023-11-22T22:27:45;6.40;86.70
18712;DHT22;9485;49.386;8.674;2023-11-22T22:33:05;6.40;86.60
18712;DHT22;9485;49.386;8.674;2023-11-22T22:38:26;6.40;86.70
18712;DHT22;9485;49.386;8.674;2023-11-22T22:43:48;6.40;86.80
18712;DHT22;9485;49.386;8.674;2023-11-22T22:49:09;6.40;86.70
18712;DHT22;9485;49.386;8.674;2023-11-22T22:54:29;6.40;86.40
18712;DHT22;9485;49.386;8.674;2023-11-22T22:59:51;6.30;86.00
18712;DHT22;9485;49.386;8.674;2023-11-22T23:05:12;6.30;87.10
18712;DHT22;9485;49.386;8.674;2023-11-22T23:10:33;6.30;87.10
18712;DHT22;9485;49.386;8.674;2023-11-22T23:15:55;6.30;87.50
18712;DHT22;9485;49.386;8.674;2023-11-22T23:21:15;6.40;87.90
18712;DHT22;9485;49.386;8.674;2023-11-22T23:26:36;6.50;88.20
18712;DHT22;9485;49.386;8.674;2023-11-22T23:32:00;6.60;88.30
18712;DHT22;9485;49.386;8.674;2023-11-22T23:37:21;6.70;88.90
18712;DHT22;9485;49.386;8.674;2023-11-22T23:42:42;6.80;88.40
18712;DHT22;9485;49.386;8.674;2023-11-22T23:48:05;6.90;89.20
18712;DHT22;9485;49.386;8.674;2023-11-22T23:53:25;6.90;88.50
18712;DHT22;9485;49.386;8.674;2023-11-22T23:58:46;7.00;88.70
